createdAt,value
2023-06-12T00:00:38.192Z,18.59
2023-06-12T00:01:38.112Z,18.56
2023-06-12T00:02:38.115Z,18.58
2023-06-12T00:03:38.269Z,18.53
2023-06-12T00:04:37.895Z,18.56
2023-06-12T00:05:37.811Z,18.50
2023-06-12T00:06:37.733Z,18.52
2023-06-12T00:07:37.654Z,18.49
2023-06-12T00:08:37.576Z,18.45
2023-06-12T00:09:37.502Z,18.53
2023-06-12T00:10:37.434Z,18.44
2023-06-12T00:11:37.350Z,18.41
2023-06-12T00:12:37.290Z,18.40
2023-06-12T00:13:37.216Z,18.44
2023-06-12T00:14:37.121Z,18.47
2023-06-12T00:15:37.046Z,18.45
2023-06-12T00:16:37.071Z,18.41
2023-06-12T00:17:36.970Z,18.45
2023-06-12T00:18:36.882Z,18.49
2023-06-12T00:19:36.739Z,18.55
2023-06-12T00:20:36.667Z,18.52
2023-06-12T00:21:36.596Z,18.59
2023-06-12T00:22:36.520Z,18.45
2023-06-12T00:23:36.464Z,18.50
2023-06-12T00:24:36.358Z,18.53
2023-06-12T00:25:36.283Z,18.52
2023-06-12T00:26:36.202Z,18.47
2023-06-12T00:27:36.128Z,18.33
2023-06-12T00:28:36.056Z,18.37
2023-06-12T00:29:35.984Z,18.34
2023-06-12T00:30:35.897Z,18.28
2023-06-12T00:31:35.847Z,18.35
2023-06-12T00:32:35.803Z,18.28
2023-06-12T00:33:35.672Z,18.35
2023-06-12T00:34:35.591Z,18.29
2023-06-12T00:35:35.513Z,18.28
2023-06-12T00:36:35.442Z,18.34
2023-06-12T00:37:35.360Z,18.35
2023-06-12T00:38:35.281Z,18.16
2023-06-12T00:39:35.209Z,18.10
2023-06-12T00:40:35.140Z,18.16
2023-06-12T00:41:35.063Z,18.03
2023-06-12T00:42:34.989Z,18.05
2023-06-12T00:43:34.911Z,17.98
2023-06-12T00:44:34.828Z,17.90
2023-06-12T00:45:34.795Z,17.94
2023-06-12T00:46:34.689Z,17.97
2023-06-12T00:47:34.630Z,17.86
2023-06-12T00:48:34.521Z,17.90
2023-06-12T00:49:34.457Z,17.78
2023-06-12T00:50:34.359Z,17.83
2023-06-12T00:51:34.296Z,17.85
2023-06-12T00:52:34.208Z,17.83
2023-06-12T00:53:34.138Z,17.80
2023-06-12T00:54:34.052Z,17.80
2023-06-12T00:55:33.984Z,17.83
2023-06-12T00:56:33.901Z,17.74
2023-06-12T00:57:33.825Z,17.71
2023-06-12T00:58:33.749Z,17.78
2023-06-12T00:59:33.665Z,17.79
2023-06-12T01:00:33.597Z,17.80
2023-06-12T01:01:33.526Z,17.72
2023-06-12T01:02:33.540Z,17.74
2023-06-12T01:03:33.498Z,17.71
2023-06-12T01:04:33.288Z,17.85
2023-06-12T01:05:33.212Z,17.83
2023-06-12T01:06:33.128Z,17.78
2023-06-12T01:07:33.059Z,17.79
2023-06-12T01:08:32.978Z,17.76
2023-06-12T01:09:32.904Z,17.79
2023-06-12T01:10:32.833Z,17.78
2023-06-12T01:11:32.746Z,17.78
2023-06-12T01:12:32.671Z,17.82
2023-06-12T01:13:32.595Z,17.70
2023-06-12T01:14:32.519Z,17.74
2023-06-12T01:15:32.439Z,17.71
2023-06-12T01:16:32.416Z,17.76
2023-06-12T01:17:32.312Z,17.80
2023-06-12T01:18:32.207Z,17.67
2023-06-12T01:19:32.130Z,17.57
2023-06-12T01:20:32.057Z,17.54
2023-06-12T01:21:31.980Z,17.59
2023-06-12T01:22:31.902Z,17.59
2023-06-12T01:23:31.829Z,17.54
2023-06-12T01:24:31.749Z,17.52
2023-06-12T01:25:31.669Z,17.51
2023-06-12T01:26:31.619Z,17.39
2023-06-12T01:27:31.512Z,17.36
2023-06-12T01:28:31.439Z,17.49
2023-06-12T01:29:31.364Z,17.45
2023-06-12T01:30:31.284Z,17.42
2023-06-12T01:31:31.242Z,17.41
2023-06-12T01:32:31.267Z,17.42
2023-06-12T01:33:31.059Z,17.45
2023-06-12T01:34:30.978Z,17.41
2023-06-12T01:35:30.899Z,17.36
2023-06-12T01:36:30.826Z,17.31
2023-06-12T01:37:30.754Z,17.23
2023-06-12T01:38:30.663Z,17.27
2023-06-12T01:39:30.599Z,17.27
2023-06-12T01:40:30.514Z,17.26
2023-06-12T01:41:30.434Z,17.31
2023-06-12T01:42:30.412Z,17.20
2023-06-12T01:43:30.280Z,17.23
2023-06-12T01:44:30.202Z,17.19
2023-06-12T01:45:30.132Z,17.19
2023-06-12T01:46:30.090Z,17.15
2023-06-12T01:47:30.021Z,17.16
2023-06-12T01:48:29.903Z,17.14
2023-06-12T01:49:29.818Z,17.19
2023-06-12T01:50:29.743Z,17.15
2023-06-12T01:51:29.664Z,17.12
2023-06-12T01:52:29.588Z,17.16
2023-06-12T01:53:29.557Z,17.08
2023-06-12T01:54:29.433Z,17.09
2023-06-12T01:55:29.354Z,17.11
2023-06-12T01:56:29.299Z,17.05
2023-06-12T01:57:29.302Z,17.08
2023-06-12T01:58:29.121Z,16.93
2023-06-12T01:59:29.046Z,17.01
2023-06-12T02:00:28.969Z,16.96
2023-06-12T02:01:28.908Z,16.96
2023-06-12T02:02:28.833Z,16.89
2023-06-12T02:03:28.732Z,16.83
2023-06-12T02:04:28.655Z,16.83
2023-06-12T02:05:28.578Z,16.66
2023-06-12T02:06:28.497Z,16.58
2023-06-12T02:07:28.438Z,16.64
2023-06-12T02:08:28.351Z,16.56
2023-06-12T02:09:28.271Z,16.60
2023-06-12T02:10:28.195Z,16.68
2023-06-12T02:11:28.113Z,16.50
2023-06-12T02:12:28.037Z,16.57
2023-06-12T02:13:27.961Z,16.53
2023-06-12T02:14:27.876Z,16.64
2023-06-12T02:15:27.804Z,16.65
2023-06-12T02:16:27.775Z,16.60
2023-06-12T02:17:27.653Z,16.56
2023-06-12T02:18:27.571Z,16.60
2023-06-12T02:19:27.510Z,16.60
2023-06-12T02:20:27.431Z,16.61
2023-06-12T02:21:27.337Z,16.64
2023-06-12T02:22:27.256Z,16.61
2023-06-12T02:23:27.183Z,16.61
2023-06-12T02:24:27.123Z,16.58
2023-06-12T02:25:27.026Z,16.65
2023-06-12T02:26:26.947Z,16.57
2023-06-12T02:27:26.874Z,16.53
2023-06-12T02:28:26.794Z,16.58
2023-06-12T02:29:26.732Z,16.54
2023-06-12T02:30:26.641Z,16.57
2023-06-12T02:31:26.596Z,16.60
2023-06-12T02:32:26.546Z,16.54
2023-06-12T02:33:26.416Z,16.49
2023-06-12T02:34:26.328Z,16.65
2023-06-12T02:35:26.259Z,16.50
2023-06-12T02:36:26.172Z,16.54
2023-06-12T02:37:26.096Z,16.51
2023-06-12T02:38:26.017Z,16.47
2023-06-12T02:39:25.945Z,16.49
2023-06-12T02:40:25.858Z,16.41
2023-06-12T02:41:25.780Z,16.24
2023-06-12T02:42:25.704Z,16.31
2023-06-12T02:43:25.630Z,16.31
2023-06-12T02:44:25.562Z,16.31
2023-06-12T02:45:25.475Z,16.31
2023-06-12T02:46:25.408Z,16.35
2023-06-12T02:47:25.359Z,16.38
2023-06-12T02:48:25.271Z,16.32
2023-06-12T02:49:25.161Z,16.31
2023-06-12T02:50:25.083Z,16.28
2023-06-12T02:51:27.996Z,16.26
2023-06-12T02:52:24.936Z,16.23
2023-06-12T02:53:24.854Z,16.26
2023-06-12T02:54:24.812Z,16.24
2023-06-12T02:55:24.701Z,16.31
2023-06-12T02:56:24.619Z,16.28
2023-06-12T02:57:24.549Z,16.29
2023-06-12T02:58:24.466Z,16.26
2023-06-12T02:59:24.399Z,16.24
2023-06-12T03:00:24.315Z,16.33
2023-06-12T03:01:24.286Z,16.24
2023-06-12T03:02:24.192Z,16.26
2023-06-12T03:03:24.113Z,16.16
2023-06-12T03:04:24.003Z,16.20
2023-06-12T03:05:23.923Z,16.13
2023-06-12T03:06:23.842Z,16.05
2023-06-12T03:07:23.777Z,16.17
2023-06-12T03:08:23.793Z,16.13
2023-06-12T03:09:23.655Z,16.20
2023-06-12T03:10:23.529Z,16.26
2023-06-12T03:11:23.458Z,16.23
2023-06-12T03:12:23.374Z,16.21
2023-06-12T03:13:23.297Z,16.24
2023-06-12T03:14:23.240Z,16.20
2023-06-12T03:15:23.138Z,16.21
2023-06-12T03:16:23.084Z,16.24
2023-06-12T03:17:23.050Z,16.17
2023-06-12T03:18:22.901Z,16.24
2023-06-12T03:19:22.829Z,16.16
2023-06-12T03:20:22.750Z,16.24
2023-06-12T03:21:22.679Z,16.21
2023-06-12T03:22:22.609Z,16.26
2023-06-12T03:23:22.521Z,16.24
2023-06-12T03:24:22.656Z,16.29
2023-06-12T03:25:22.358Z,16.23
2023-06-12T03:26:22.302Z,16.28
2023-06-12T03:27:22.209Z,16.26
2023-06-12T03:28:22.128Z,16.20
2023-06-12T03:29:22.052Z,16.20
2023-06-12T03:30:21.960Z,16.13
2023-06-12T03:31:21.925Z,16.15
2023-06-12T03:32:21.837Z,16.13
2023-06-12T03:33:21.738Z,16.20
2023-06-12T03:34:21.651Z,16.21
2023-06-12T03:35:21.576Z,16.28
2023-06-12T03:36:21.506Z,16.16
2023-06-12T03:37:21.419Z,16.16
2023-06-12T03:38:21.352Z,15.97
2023-06-12T03:39:21.277Z,15.95
2023-06-12T03:40:21.196Z,15.94
2023-06-12T03:41:21.108Z,15.94
2023-06-12T03:42:21.038Z,16.00
2023-06-12T03:43:20.951Z,16.00
2023-06-12T03:44:20.879Z,15.94
2023-06-12T03:45:20.801Z,16.00
2023-06-12T03:46:20.759Z,16.01
2023-06-12T03:47:20.654Z,16.08
2023-06-12T03:48:20.569Z,16.08
2023-06-12T03:49:20.492Z,16.04
2023-06-12T03:50:20.411Z,16.09
2023-06-12T03:51:20.329Z,16.13
2023-06-12T03:52:20.254Z,16.21
2023-06-12T03:53:20.174Z,16.26
2023-06-12T03:54:20.112Z,16.21
2023-06-12T03:55:20.028Z,16.26
2023-06-12T03:56:19.938Z,16.26
2023-06-12T03:57:19.865Z,16.24
2023-06-12T03:58:19.785Z,16.26
2023-06-12T03:59:19.717Z,16.24
2023-06-12T04:00:19.627Z,16.31
2023-06-12T04:01:19.553Z,16.28
2023-06-12T04:02:19.523Z,16.23
2023-06-12T04:03:19.786Z,16.23
2023-06-12T04:04:19.364Z,16.23
2023-06-12T04:05:19.232Z,16.21
2023-06-12T04:06:19.160Z,16.29
2023-06-12T04:07:19.076Z,16.31
2023-06-12T04:08:19.004Z,16.29
2023-06-12T04:09:18.932Z,16.32
2023-06-12T04:10:18.866Z,16.32
2023-06-12T04:11:18.767Z,16.38
2023-06-12T04:12:18.692Z,16.49
2023-06-12T04:13:18.642Z,16.58
2023-06-12T04:14:18.534Z,16.58
2023-06-12T04:15:18.460Z,16.53
2023-06-12T04:16:18.402Z,16.65
2023-06-12T04:17:18.304Z,16.65
2023-06-12T04:18:18.223Z,16.60
2023-06-12T04:19:18.150Z,16.74
2023-06-12T04:20:18.064Z,16.83
2023-06-12T04:21:17.982Z,16.81
2023-06-12T04:22:17.991Z,16.90
2023-06-12T04:23:17.909Z,17.01
2023-06-12T04:24:17.975Z,17.08
2023-06-12T04:25:17.673Z,17.14
2023-06-12T04:26:17.596Z,17.05
2023-06-12T04:27:17.524Z,17.09
2023-06-12T04:28:17.450Z,17.04
2023-06-12T04:29:17.451Z,17.12
2023-06-12T04:30:17.290Z,17.15
2023-06-12T04:31:17.275Z,17.14
2023-06-12T04:32:17.297Z,17.15
2023-06-12T04:33:17.097Z,17.20
2023-06-12T04:34:17.100Z,17.15
2023-06-12T04:35:16.907Z,17.22
2023-06-12T04:36:16.823Z,17.20
2023-06-12T04:37:16.747Z,17.20
2023-06-12T04:38:16.692Z,17.20
2023-06-12T04:39:16.589Z,17.19
2023-06-12T04:40:16.534Z,17.26
2023-06-12T04:41:16.433Z,17.26
2023-06-12T04:42:16.360Z,17.23
2023-06-12T04:43:16.283Z,17.26
2023-06-12T04:44:16.207Z,17.29
2023-06-12T04:45:16.128Z,17.30
2023-06-12T04:46:16.048Z,17.29
2023-06-12T04:47:15.969Z,17.26
2023-06-12T04:48:15.979Z,17.34
2023-06-12T04:49:15.845Z,17.33
2023-06-12T04:50:16.034Z,17.31
2023-06-12T04:51:15.658Z,17.33
2023-06-12T04:52:15.637Z,17.33
2023-06-12T04:53:15.511Z,17.30
2023-06-12T04:54:15.430Z,17.34
2023-06-12T04:55:15.348Z,17.39
2023-06-12T04:56:15.270Z,17.39
2023-06-12T04:57:15.193Z,17.41
2023-06-12T04:58:15.114Z,17.51
2023-06-12T04:59:15.040Z,17.54
2023-06-12T05:00:15.260Z,17.57
2023-06-12T05:01:14.925Z,17.54
2023-06-12T05:02:14.804Z,17.63
2023-06-12T05:03:14.725Z,17.74
2023-06-12T05:04:14.695Z,17.60
2023-06-12T05:05:14.580Z,17.70
2023-06-12T05:06:14.504Z,17.63
2023-06-12T05:07:14.422Z,17.63
2023-06-12T05:08:14.360Z,17.78
2023-06-12T05:09:14.263Z,17.80
2023-06-12T05:10:14.284Z,17.76
2023-06-12T05:11:14.104Z,17.71
2023-06-12T05:12:14.039Z,17.80
2023-06-12T05:13:13.958Z,17.82
2023-06-12T05:14:13.883Z,17.82
2023-06-12T05:15:13.810Z,17.85
2023-06-12T05:16:13.841Z,17.79
2023-06-12T05:17:13.691Z,17.80
2023-06-12T05:18:13.593Z,17.82
2023-06-12T05:19:13.491Z,17.89
2023-06-12T05:20:13.918Z,17.86
2023-06-12T05:21:13.338Z,17.97
2023-06-12T05:22:13.257Z,18.04
2023-06-12T05:23:13.182Z,17.98
2023-06-12T05:24:13.128Z,18.01
2023-06-12T05:25:13.033Z,18.18
2023-06-12T05:26:12.957Z,18.03
2023-06-12T05:27:12.880Z,18.04
2023-06-12T05:28:12.801Z,18.07
2023-06-12T05:29:12.719Z,18.10
2023-06-12T05:30:12.855Z,18.16
2023-06-12T05:31:12.584Z,18.16
2023-06-12T05:32:12.491Z,18.19
2023-06-12T05:33:12.494Z,18.19
2023-06-12T05:34:12.336Z,18.26
2023-06-12T05:35:12.268Z,18.33
2023-06-12T05:36:12.178Z,18.34
2023-06-12T05:37:12.098Z,18.34
2023-06-12T05:38:12.021Z,18.31
2023-06-12T05:39:14.354Z,18.25
2023-06-12T05:40:12.200Z,18.35
2023-06-12T05:41:11.805Z,18.37
2023-06-12T05:42:11.732Z,18.44
2023-06-12T05:43:11.633Z,18.40
2023-06-12T05:44:11.552Z,18.44
2023-06-12T05:45:11.486Z,18.45
2023-06-12T05:46:11.465Z,18.47
2023-06-12T05:47:11.738Z,18.53
2023-06-12T05:48:11.280Z,18.52
2023-06-12T05:49:11.172Z,18.56
2023-06-12T05:50:11.096Z,18.63
2023-06-12T05:51:11.014Z,18.59
2023-06-12T05:52:10.946Z,18.71
2023-06-12T05:53:10.868Z,18.62
2023-06-12T05:54:10.820Z,18.68
2023-06-12T05:55:11.243Z,18.66
2023-06-12T05:56:11.272Z,18.80
2023-06-12T05:57:11.418Z,18.81
2023-06-12T05:58:10.476Z,18.75
2023-06-12T05:59:10.405Z,18.84
2023-06-12T06:00:10.637Z,18.74
2023-06-12T06:01:10.246Z,18.86
2023-06-12T06:02:10.176Z,18.84
2023-06-12T06:03:10.228Z,18.93
2023-06-12T06:04:10.127Z,18.98
2023-06-12T06:05:10.158Z,19.02
2023-06-12T06:06:09.863Z,18.99
2023-06-12T06:07:17.766Z,19.00
2023-06-12T06:08:09.708Z,19.11
2023-06-12T06:09:09.634Z,19.09
2023-06-12T06:10:09.558Z,19.19
2023-06-12T06:11:09.482Z,19.15
2023-06-12T06:12:09.398Z,19.15
2023-06-12T06:13:09.331Z,19.27
2023-06-12T06:14:09.251Z,19.33
2023-06-12T06:15:09.176Z,19.31
2023-06-12T06:16:10.783Z,19.30
2023-06-12T06:17:09.041Z,19.33
2023-06-12T06:18:08.957Z,19.41
2023-06-12T06:19:08.865Z,19.41
2023-06-12T06:20:08.796Z,19.52
2023-06-12T06:21:08.715Z,19.40
2023-06-12T06:22:08.637Z,19.41
2023-06-12T06:23:08.559Z,19.51
2023-06-12T06:24:08.581Z,19.51
2023-06-12T06:25:08.406Z,19.51
2023-06-12T06:26:08.333Z,19.63
2023-06-12T06:27:08.253Z,19.58
2023-06-12T06:28:08.187Z,19.56
2023-06-12T06:29:13.626Z,19.66
2023-06-12T06:30:08.030Z,19.63
2023-06-12T06:31:07.986Z,19.74
2023-06-12T06:32:07.922Z,19.74
2023-06-12T06:33:07.847Z,19.76
2023-06-12T06:34:07.708Z,19.84
2023-06-12T06:35:07.638Z,19.91
2023-06-12T06:36:07.558Z,19.85
2023-06-12T06:37:07.484Z,19.84
2023-06-12T06:38:07.406Z,19.95
2023-06-12T06:39:07.413Z,19.92
2023-06-12T06:40:07.264Z,19.92
2023-06-12T06:41:07.189Z,20.02
2023-06-12T06:42:07.103Z,20.06
2023-06-12T06:43:07.028Z,20.06
2023-06-12T06:44:06.984Z,20.14
2023-06-12T06:45:06.883Z,20.13
2023-06-12T06:46:09.078Z,20.16
2023-06-12T06:47:06.717Z,20.18
2023-06-12T06:48:06.673Z,20.28
2023-06-12T06:49:06.561Z,20.13
2023-06-12T06:50:06.491Z,20.28
2023-06-12T06:51:06.418Z,20.24
2023-06-12T06:52:06.389Z,20.26
2023-06-12T06:53:06.260Z,20.32
2023-06-12T06:54:06.187Z,20.34
2023-06-12T06:55:06.112Z,20.37
2023-06-12T06:56:06.038Z,20.50
2023-06-12T06:57:07.713Z,20.52
2023-06-12T06:58:05.893Z,20.58
2023-06-12T06:59:05.813Z,20.56
2023-06-12T07:00:05.734Z,20.58
2023-06-12T07:01:05.686Z,20.59
2023-06-12T07:02:05.571Z,20.66
2023-06-12T07:03:05.561Z,20.60
2023-06-12T07:04:05.490Z,20.62
2023-06-12T07:05:05.395Z,20.74
2023-06-12T07:06:05.274Z,20.70
2023-06-12T07:07:05.186Z,20.77
2023-06-12T07:08:05.120Z,20.77
2023-06-12T07:09:05.044Z,20.77
2023-06-12T07:10:04.978Z,20.77
2023-06-12T07:11:04.906Z,20.78
2023-06-12T07:12:04.832Z,20.93
2023-06-12T07:13:04.734Z,20.82
2023-06-12T07:14:04.662Z,20.92
2023-06-12T07:15:04.615Z,20.96
2023-06-12T07:16:04.528Z,20.96
2023-06-12T07:17:04.433Z,20.96
2023-06-12T07:18:04.487Z,21.06
2023-06-12T07:19:04.282Z,21.07
2023-06-12T07:20:04.205Z,21.12
2023-06-12T07:21:04.135Z,21.21
2023-06-12T07:22:04.061Z,21.21
2023-06-12T07:23:03.989Z,21.29
2023-06-12T07:24:04.002Z,21.42
2023-06-12T07:25:03.825Z,21.33
2023-06-12T07:26:14.759Z,21.43
2023-06-12T07:27:03.702Z,21.51
2023-06-12T07:28:03.609Z,21.52
2023-06-12T07:29:03.522Z,21.51
2023-06-12T07:30:03.456Z,21.58
2023-06-12T07:31:03.421Z,21.50
2023-06-12T07:32:03.301Z,21.50
2023-06-12T07:33:03.284Z,21.54
2023-06-12T07:34:05.422Z,21.48
2023-06-12T07:35:03.142Z,21.46
2023-06-12T07:36:03.002Z,21.58
2023-06-12T07:37:02.916Z,21.57
2023-06-12T07:38:02.838Z,21.54
2023-06-12T07:39:02.814Z,21.52
2023-06-12T07:40:02.745Z,21.57
2023-06-12T07:41:02.613Z,21.55
2023-06-12T07:42:02.542Z,21.52
2023-06-12T07:43:02.467Z,21.54
2023-06-12T07:44:02.388Z,21.62
2023-06-12T07:45:02.306Z,21.66
2023-06-12T07:46:02.242Z,21.70
2023-06-12T07:47:02.204Z,21.72
2023-06-12T07:48:02.099Z,21.73
2023-06-12T07:49:02.006Z,21.75
2023-06-12T07:50:01.938Z,21.73
2023-06-12T07:51:01.857Z,21.73
2023-06-12T07:52:01.781Z,21.72
2023-06-12T07:53:01.702Z,21.73
2023-06-12T07:54:01.631Z,21.72
2023-06-12T07:55:01.552Z,21.82
2023-06-12T07:56:01.478Z,21.83
2023-06-12T07:57:01.407Z,21.85
2023-06-12T07:58:01.342Z,21.91
2023-06-12T07:59:01.252Z,21.92
2023-06-12T08:00:01.225Z,21.93
2023-06-12T08:01:01.098Z,21.96
2023-06-12T08:02:01.044Z,22.02
2023-06-12T08:03:06.249Z,22.00
2023-06-12T08:04:00.918Z,22.08
2023-06-12T08:05:00.810Z,22.02
2023-06-12T08:06:03.560Z,22.06
2023-06-12T08:07:00.740Z,22.06
2023-06-12T08:08:00.592Z,22.10
2023-06-12T08:09:00.494Z,22.07
2023-06-12T08:10:00.439Z,21.95
2023-06-12T08:11:00.351Z,22.04
2023-06-12T08:12:00.428Z,21.99
2023-06-12T08:13:00.199Z,22.00
2023-06-12T08:14:00.134Z,22.00
2023-06-12T08:15:00.048Z,22.04
2023-06-12T08:15:59.966Z,22.08
2023-06-12T08:16:59.951Z,22.13
2023-06-12T08:17:59.888Z,22.07
2023-06-12T08:19:02.381Z,22.14
2023-06-12T08:19:59.675Z,22.20
2023-06-12T08:20:59.594Z,22.18
2023-06-12T08:21:59.518Z,22.18
2023-06-12T08:22:59.445Z,22.18
2023-06-12T08:23:59.411Z,22.25
2023-06-12T08:24:59.295Z,22.23
2023-06-12T08:25:59.222Z,22.32
2023-06-12T08:26:59.164Z,22.30
2023-06-12T08:27:59.078Z,22.33
2023-06-12T08:28:58.991Z,22.32
2023-06-12T08:29:58.920Z,22.36
2023-06-12T08:30:58.935Z,22.32
2023-06-12T08:31:58.776Z,22.39
2023-06-12T08:32:58.728Z,22.39
2023-06-12T08:33:58.626Z,22.47
2023-06-12T08:34:58.545Z,22.54
2023-06-12T08:35:58.474Z,22.51
2023-06-12T08:36:58.396Z,22.63
2023-06-12T08:37:58.323Z,22.66
2023-06-12T08:38:58.251Z,22.70
2023-06-12T08:39:58.174Z,22.66
2023-06-12T08:40:58.107Z,22.84
2023-06-12T08:41:58.026Z,22.80
2023-06-12T08:42:58.616Z,22.83
2023-06-12T08:43:57.883Z,22.83
2023-06-12T08:45:11.062Z,22.83
2023-06-12T08:45:57.761Z,22.80
2023-06-12T08:46:57.671Z,22.72
2023-06-12T08:47:57.593Z,22.70
2023-06-12T08:48:57.498Z,22.69
2023-06-12T08:49:57.426Z,22.69
2023-06-12T08:50:57.347Z,22.72
2023-06-12T08:51:57.275Z,22.73
2023-06-12T08:52:57.197Z,22.66
2023-06-12T08:53:57.137Z,22.63
2023-06-12T08:54:57.054Z,22.70
2023-06-12T08:55:57.006Z,22.69
2023-06-12T08:56:56.902Z,22.84
2023-06-12T08:57:56.822Z,22.83
2023-06-12T08:58:56.750Z,22.78
2023-06-12T08:59:56.675Z,22.93
2023-06-12T09:00:56.601Z,23.00
2023-06-12T09:02:13.061Z,23.03
2023-06-12T09:02:56.578Z,22.94
2023-06-12T09:03:56.415Z,23.09
2023-06-12T09:04:56.505Z,23.08
2023-06-12T09:05:57.168Z,23.18
2023-06-12T09:06:56.157Z,23.15
2023-06-12T09:07:56.081Z,23.25
2023-06-12T09:08:56.005Z,23.37
2023-06-12T09:10:04.924Z,23.28
2023-06-12T09:10:55.860Z,23.34
2023-06-12T09:11:55.777Z,23.31
2023-06-12T09:12:55.713Z,23.25
2023-06-12T09:13:55.632Z,23.34
2023-06-12T09:14:55.558Z,23.40
2023-06-12T09:15:55.579Z,23.34
2023-06-12T09:16:55.540Z,23.21
2023-06-12T09:17:55.464Z,23.18
2023-06-12T09:18:55.374Z,23.25
2023-06-12T09:19:55.184Z,23.31
2023-06-12T09:20:57.162Z,23.40
2023-06-12T09:21:55.041Z,23.44
2023-06-12T09:22:55.629Z,23.55
2023-06-12T09:23:54.898Z,23.51
2023-06-12T09:24:54.814Z,23.61
2023-06-12T09:26:13.958Z,23.63
2023-06-12T09:26:54.656Z,23.68
2023-06-12T09:27:54.588Z,23.63
2023-06-12T09:28:54.566Z,23.56
2023-06-12T09:29:54.432Z,23.50
2023-06-12T09:30:56.338Z,23.51
2023-06-12T09:31:54.317Z,23.47
2023-06-12T09:32:54.229Z,23.46
2023-06-12T09:33:54.175Z,23.37
2023-06-12T09:34:54.067Z,23.40
2023-06-12T09:35:53.994Z,23.31
2023-06-12T09:36:53.912Z,23.32
2023-06-12T09:37:53.842Z,23.21
2023-06-12T09:38:53.769Z,23.15
2023-06-12T09:39:53.696Z,23.21
2023-06-12T09:40:53.663Z,23.21
2023-06-12T09:41:55.169Z,23.18
2023-06-12T09:42:53.489Z,23.20
2023-06-12T09:43:53.404Z,23.09
2023-06-12T09:44:53.338Z,23.15
2023-06-12T09:45:53.277Z,23.18
2023-06-12T09:46:53.407Z,23.21
2023-06-12T09:47:53.143Z,23.23
2023-06-12T09:48:53.030Z,23.15
2023-06-12T09:49:52.955Z,23.08
2023-06-12T09:50:52.898Z,22.98
2023-06-12T09:51:52.801Z,23.05
2023-06-12T09:52:52.731Z,23.02
2023-06-12T09:53:52.655Z,23.02
2023-06-12T09:54:52.575Z,23.13
2023-06-12T09:55:52.506Z,23.23
2023-06-12T09:56:52.439Z,23.39
2023-06-12T09:57:52.370Z,23.40
2023-06-12T09:58:52.281Z,23.44
2023-06-12T09:59:52.210Z,23.47
2023-06-12T10:00:52.143Z,23.50
2023-06-12T10:01:52.095Z,23.59
2023-06-12T10:02:51.983Z,23.54
2023-06-12T10:03:51.923Z,23.54
2023-06-12T10:04:51.838Z,23.59
2023-06-12T10:05:51.756Z,23.58
2023-06-12T10:06:51.693Z,23.56
2023-06-12T10:07:51.612Z,23.50
2023-06-12T10:08:52.142Z,23.63
2023-06-12T10:09:51.461Z,23.48
2023-06-12T10:10:51.393Z,23.58
2023-06-12T10:11:51.315Z,23.51
2023-06-12T10:12:51.242Z,23.54
2023-06-12T10:13:51.171Z,23.56
2023-06-12T10:14:51.146Z,23.59
2023-06-12T10:15:51.062Z,23.69
2023-06-12T10:16:50.988Z,23.77
2023-06-12T10:17:50.915Z,23.80
2023-06-12T10:18:50.793Z,23.86
2023-06-12T10:19:50.725Z,23.92
2023-06-12T10:20:50.650Z,24.02
2023-06-12T10:21:50.570Z,23.92
2023-06-12T10:22:50.500Z,23.99
2023-06-12T10:23:50.474Z,23.92
2023-06-12T10:24:50.348Z,23.93
2023-06-12T10:25:50.275Z,23.87
2023-06-12T10:26:50.205Z,23.93
2023-06-12T10:27:50.142Z,23.93
2023-06-12T10:28:50.066Z,23.91
2023-06-12T10:29:49.983Z,23.92
2023-06-12T10:30:49.940Z,23.92
2023-06-12T10:31:50.743Z,23.91
2023-06-12T10:32:49.818Z,23.88
2023-06-12T10:33:49.685Z,23.84
2023-06-12T10:34:49.611Z,23.83
2023-06-12T10:35:49.539Z,23.74
2023-06-12T10:36:49.465Z,23.83
2023-06-12T10:37:49.386Z,23.84
2023-06-12T10:38:49.320Z,23.86
2023-06-12T10:39:49.253Z,23.91
2023-06-12T10:40:50.439Z,23.98
2023-06-12T10:41:49.092Z,24.02
2023-06-12T10:42:49.153Z,24.21
2023-06-12T10:43:59.593Z,24.29
2023-06-12T10:44:48.873Z,24.28
2023-06-12T10:45:48.855Z,24.35
2023-06-12T10:46:48.744Z,24.38
2023-06-12T10:47:48.698Z,24.38
2023-06-12T10:48:48.604Z,24.45
2023-06-12T10:49:48.506Z,24.51
2023-06-12T10:50:48.457Z,24.60
2023-06-12T10:51:48.370Z,24.55
2023-06-12T10:52:48.286Z,24.61
2023-06-12T10:53:48.219Z,24.69
2023-06-12T10:54:48.137Z,24.65
2023-06-12T10:55:48.078Z,24.69
2023-06-12T10:56:48.048Z,24.84
2023-06-12T10:57:47.920Z,24.86
2023-06-12T10:58:47.850Z,24.86
2023-06-12T10:59:47.773Z,24.88
2023-06-12T11:00:47.721Z,24.85
2023-06-12T11:01:47.661Z,24.85
2023-06-12T11:02:47.727Z,24.84
2023-06-12T11:03:47.681Z,24.88
2023-06-12T11:04:47.523Z,24.81
2023-06-12T11:05:47.361Z,24.84
2023-06-12T11:06:47.309Z,24.86
2023-06-12T11:07:47.209Z,24.98
2023-06-12T11:08:47.314Z,24.91
2023-06-12T11:09:47.037Z,24.93
2023-06-12T11:10:46.959Z,25.04
2023-06-12T11:11:46.885Z,24.93
2023-06-12T11:12:52.763Z,25.06
2023-06-12T11:13:46.772Z,25.10
2023-06-12T11:14:46.700Z,25.06
2023-06-12T11:15:46.643Z,25.07
2023-06-12T11:16:46.575Z,25.10
2023-06-12T11:17:46.480Z,25.11
2023-06-12T11:18:46.369Z,25.10
2023-06-12T11:19:46.292Z,25.10
2023-06-12T11:20:46.230Z,25.25
2023-06-12T11:21:46.149Z,25.18
2023-06-12T11:22:46.076Z,25.25
2023-06-12T11:23:46.029Z,25.26
2023-06-12T11:24:46.150Z,25.18
2023-06-12T11:25:45.893Z,25.18
2023-06-12T11:26:45.781Z,25.22
2023-06-12T11:27:45.732Z,25.22
2023-06-12T11:28:45.634Z,25.21
2023-06-12T11:30:58.101Z,25.31
2023-06-12T11:31:45.416Z,25.32
2023-06-12T11:32:45.369Z,25.44
2023-06-12T11:33:45.277Z,25.38
2023-06-12T11:34:45.253Z,25.43
2023-06-12T11:35:45.126Z,25.46
2023-06-12T11:36:45.050Z,25.46
2023-06-12T11:40:44.753Z,25.55
2023-06-12T11:41:44.679Z,25.59
2023-06-12T11:42:44.618Z,25.63
2023-06-12T11:43:44.543Z,25.58
2023-06-12T11:44:44.507Z,25.59
2023-06-12T11:45:44.386Z,25.63
2023-06-12T11:46:44.369Z,25.65
2023-06-12T11:49:44.224Z,25.80
2023-06-12T11:50:44.019Z,25.80
2023-06-12T11:51:43.962Z,25.80
2023-06-12T11:52:45.460Z,25.87
2023-06-12T11:53:43.802Z,25.87
2023-06-12T11:57:43.508Z,26.00
2023-06-12T11:58:43.436Z,25.99
2023-06-12T11:59:43.367Z,26.02
2023-06-12T12:00:43.303Z,26.15
2023-06-12T12:01:43.286Z,26.21
2023-06-12T12:02:43.265Z,26.22
2023-06-12T12:03:43.076Z,26.18
2023-06-12T12:04:43.060Z,26.18
2023-06-12T12:05:42.935Z,26.31
2023-06-12T12:06:42.862Z,26.33
2023-06-12T12:07:42.787Z,26.28
2023-06-12T12:08:42.785Z,26.29
2023-06-12T12:09:42.641Z,26.44
2023-06-12T12:10:42.573Z,26.34
2023-06-12T12:11:42.507Z,26.38
2023-06-12T12:12:42.415Z,26.38
2023-06-12T12:13:42.352Z,26.41
2023-06-12T12:14:42.297Z,26.47
2023-06-12T12:15:42.331Z,26.48
2023-06-12T12:16:42.131Z,26.44
2023-06-12T12:17:42.081Z,26.59
2023-06-12T12:18:41.987Z,26.55
2023-06-12T12:19:41.919Z,26.65
2023-06-12T12:20:41.874Z,26.60
2023-06-12T12:21:41.775Z,26.77
2023-06-12T12:22:41.718Z,26.71
2023-06-12T12:23:41.652Z,26.77
2023-06-12T12:24:41.554Z,26.74
2023-06-12T12:25:41.479Z,26.73
2023-06-12T12:26:41.404Z,26.73
2023-06-12T12:27:41.345Z,26.62
2023-06-12T12:28:41.268Z,26.73
2023-06-12T12:29:54.917Z,26.75
2023-06-12T12:30:41.113Z,26.77
2023-06-12T12:31:42.451Z,26.75
2023-06-12T12:32:41.027Z,26.77
2023-06-12T12:33:40.899Z,26.83
2023-06-12T12:34:40.866Z,26.88
2023-06-12T12:35:40.758Z,26.88
2023-06-12T12:36:40.683Z,26.89
2023-06-12T12:37:40.614Z,26.99
2023-06-12T12:38:40.537Z,26.99
2023-06-12T12:39:40.474Z,27.10
2023-06-12T12:40:40.403Z,27.12
2023-06-12T12:41:40.318Z,27.21
2023-06-12T12:42:40.258Z,27.35
2023-06-12T12:43:40.177Z,27.36
2023-06-12T12:44:40.105Z,27.40
2023-06-12T12:45:40.033Z,27.48
2023-06-12T12:46:39.967Z,27.64
2023-06-12T12:47:39.980Z,27.65
2023-06-12T12:48:39.931Z,27.78
2023-06-12T12:49:48.406Z,27.78
2023-06-12T12:50:52.067Z,27.78
2023-06-12T12:51:39.602Z,27.86
2023-06-12T12:52:39.532Z,27.92
2023-06-12T12:53:39.513Z,28.02
2023-06-12T12:54:39.389Z,27.95
2023-06-12T12:55:39.316Z,27.93
2023-06-12T12:56:39.244Z,27.98
2023-06-12T12:57:39.170Z,28.05
2023-06-12T12:58:39.103Z,28.14
2023-06-12T12:59:39.036Z,28.17
2023-06-12T13:00:39.001Z,28.27